MDT,Max TemperatureF,Mean TemperatureF,Min TemperatureF,Max Dew PointF,MeanDew PointF,Min DewpointF,Max Humidity, Mean Humidity, Min Humidity, Max Sea Level PressureIn, Mean Sea Level PressureIn, Min Sea Level PressureIn, Max VisibilityMiles, Mean VisibilityMiles, Min VisibilityMiles, Max Wind SpeedMPH, Mean Wind SpeedMPH, Max Gust SpeedMPH,PrecipitationIn, CloudCover, Events, WindDirDegrees
2013-10-1,56,47,38,41,37,32,93,69,45,30.13,30.02,29.96,10,10,7,21,5,26,0.03,6,Rain,179
2013-10-2,55,45,34,38,31,27,96,66,35,30.23,30.11,30.00,10,10,10,20,6,26,0.00,2,,334
2013-10-3,51,45,38,33,29,25,79,59,39,30.44,30.20,29.99,10,10,10,16,7,23,0.00,8,,323
2013-10-4,56,41,25,29,26,20,85,56,26,30.61,30.52,30.45,10,10,10,12,2,15,0.00,0,,354
2013-10-5,60,43,26,31,27,24,92,59,25,30.56,30.47,30.36,10,10,10,6,1,8,0.00,0,,135
2013-10-6,67,48,28,36,31,27,92,60,28,30.39,30.25,30.06,10,10,10,7,1,8,0.00,0,,334
2013-10-7,68,49,29,35,31,28,92,59,26,30.05,29.95,29.83,10,10,9,26,5,36,T,3,,293
2013-10-8,54,44,34,38,34,30,92,69,46,30.04,29.94,29.90,10,10,8,18,5,21,0.01,5,Rain,301
2013-10-9,58,46,34,38,34,32,100,70,39,30.13,30.03,29.92,10,6,0,14,4,18,0.00,5,Fog,323
2013-10-10,51,40,28,36,33,27,100,76,52,29.98,29.93,29.89,10,10,10,9,3,15,0.00,5,,300
2013-10-11,56,44,31,36,30,25,89,61,32,30.14,30.09,29.98,10,10,10,17,4,21,0.00,5,,327
2013-10-12,53,41,29,31,28,25,92,64,35,30.17,30.12,30.07,10,10,10,13,4,16,0.00,6,,348
2013-10-13,55,42,28,33,30,27,92,65,38,30.28,30.22,30.16,10,10,10,21,6,26,0.00,4,,329
2013-10-14,55,44,32,33,30,28,82,60,38,30.47,30.38,30.28,10,10,10,15,2,17,0.00,6,,16
2013-10-15,54,39,24,30,27,23,92,65,38,30.53,30.40,30.26,10,10,10,6,1,22,0.00,0,,258
2013-10-16,51,40,29,34,30,27,92,72,52,30.26,30.22,30.18,10,10,10,14,3,17,T,5,Rain,330
2013-10-17,51,39,27,34,31,26,100,75,50,30.38,30.30,30.19,10,10,9,33,1,81,T,4,,318
2013-10-18,55,38,21,33,27,19,100,73,45,30.44,30.33,30.22,10,5,0,6,0,8,0.00,3,Fog,205
2013-10-19,53,40,26,34,30,26,92,71,49,30.26,30.17,30.07,10,10,8,10,3,23,0.00,0,,209
2013-10-20,62,48,33,35,32,29,85,60,34,30.22,30.16,30.10,10,10,10,10,2,14,0.00,2,,329
2013-10-21,61,46,30,38,34,28,96,69,42,30.36,30.26,30.20,10,10,7,5,0,7,0.00,0,,125
2013-10-22,63,44,25,39,33,25,100,71,42,30.35,30.27,30.18,10,6,0,5,0,10,0.00,2,Fog,160
2013-10-23,62,44,25,37,31,25,92,64,36,30.31,30.24,30.17,10,9,1,7,1,9,0.00,1,,353
2013-10-24,61,44,26,34,30,25,92,62,32,30.31,30.23,30.13,10,8,1,5,0,7,0.00,0,,205
2013-10-25,61,43,24,34,29,21,92,64,36,30.39,30.31,30.24,10,9,0,6,0,8,0.00,0,Fog,130
2013-10-26,60,43,25,33,30,25,92,65,38,30.45,30.33,30.19,10,10,7,5,0,6,0.00,0,,180
2013-10-27,53,37,21,34,27,17,92,66,40,30.15,29.98,29.81,10,10,10,24,7,32,0.00,3,,49
2013-10-28,39,33,27,20,14,11,69,53,37,30.21,30.15,30.12,10,10,7,25,18,32,T,8,Snow,123
2013-10-29,42,32,21,19,16,13,74,56,37,30.14,30.08,30.00,10,10,10,22,5,26,0.00,0,,146
2013-10-30,51,34,16,24,20,12,88,60,32,30.14,30.08,30.01,10,10,10,14,3,20,0.00,3,,316
2013-10-31,47,42,37,37,32,24,85,68,51,30.20,30.09,30.02,10,10,8,14,5,18,0.02,8,Rain,338